createdAt,value
2023-05-10T00:00:00.000Z,13.76
2023-05-10T00:15:00.000Z,14.67
2023-05-10T00:30:00.000Z,14.86
2023-05-10T00:45:00.000Z,14.54
2023-05-10T01:00:00.000Z,15.47
2023-05-10T01:15:00.000Z,13.46
2023-05-10T01:30:00.000Z,11.65
2023-05-10T01:45:00.000Z,12.64
2023-05-10T02:00:00.000Z,11.95
2023-05-10T02:15:00.000Z,9.73
2023-05-10T02:30:00.000Z,7.06
2023-05-10T02:45:00.000Z,7.05
2023-05-10T03:00:00.000Z,7.13
2023-05-10T03:15:00.000Z,7.22
2023-05-10T03:30:00.000Z,5.29
2023-05-10T03:45:00.000Z,5.96
2023-05-10T04:00:00.000Z,8.01
2023-05-10T04:15:00.000Z,6.24
2023-05-10T04:30:00.000Z,8.42
2023-05-10T04:45:00.000Z,11.09
2023-05-10T05:00:00.000Z,12.07
2023-05-10T05:15:00.000Z,13
2023-05-10T05:30:00.000Z,13.16
2023-05-10T05:45:00.000Z,12.74
2023-05-10T06:00:00.000Z,12.98
2023-05-10T06:15:00.000Z,12.69
2023-05-10T06:30:00.000Z,13.82
2023-05-10T06:45:00.000Z,13.2
2023-05-10T07:00:00.000Z,12.28
2023-05-10T07:15:00.000Z,10.32
2023-05-10T07:30:00.000Z,10.31
2023-05-10T07:45:00.000Z,11.94
2023-05-10T08:00:00.000Z,10.24
2023-05-10T08:15:00.000Z,11.02
2023-05-10T08:30:00.000Z,9.02
2023-05-10T08:45:00.000Z,5.6
2023-05-10T09:00:00.000Z,14.28
2023-05-10T09:15:00.000Z,10.06
2023-05-10T09:30:00.000Z,23.81
2023-05-10T09:45:00.000Z,14.45
2023-05-10T10:00:00.000Z,22.81
2023-05-10T10:15:00.000Z,3.93
2023-05-10T10:30:00.000Z,4.4
2023-05-10T10:45:00.000Z,3.71
2023-05-10T11:00:00.000Z,12.39
2023-05-10T11:15:00.000Z,5.61
2023-05-10T11:30:00.000Z,9.92
2023-05-10T11:45:00.000Z,4.42
2023-05-10T12:00:00.000Z,2.89
2023-05-10T12:15:00.000Z,2.86
2023-05-10T12:30:00.000Z,2.31
2023-05-10T12:45:00.000Z,4.48
2023-05-10T13:00:00.000Z,3.15
2023-05-10T13:15:00.000Z,1.92
2023-05-10T13:30:00.000Z,3.62
2023-05-10T13:45:00.000Z,1.44
2023-05-10T14:00:00.000Z,1.72
2023-05-10T14:15:00.000Z,2.22
2023-05-10T14:30:00.000Z,3.28
2023-05-10T14:45:00.000Z,2.95
2023-05-10T15:00:00.000Z,5.38
2023-05-10T15:15:00.000Z,3.58
2023-05-10T15:30:00.000Z,4.62
2023-05-10T15:45:00.000Z,4.44
2023-05-10T16:00:00.000Z,5.78
2023-05-10T16:15:00.000Z,10.61
2023-05-10T16:30:00.000Z,5.32
2023-05-10T16:45:00.000Z,3.02
2023-05-10T17:00:00.000Z,3.54
2023-05-10T17:15:00.000Z,5.59
2023-05-10T17:30:00.000Z,4.94
2023-05-10T17:45:00.000Z,3.26
2023-05-10T18:00:00.000Z,3.92
2023-05-10T18:15:00.000Z,3.56
2023-05-10T18:30:00.000Z,4.05
2023-05-10T18:45:00.000Z,2.76
2023-05-10T19:00:00.000Z,2.81
2023-05-10T19:15:00.000Z,1.76
2023-05-10T19:30:00.000Z,2.39
2023-05-10T19:45:00.000Z,1.52
2023-05-10T20:00:00.000Z,3.37
2023-05-10T20:15:00.000Z,2
2023-05-10T20:30:00.000Z,1.44
2023-05-10T20:45:00.000Z,1.85
2023-05-10T21:00:00.000Z,1.44
2023-05-10T21:15:00.000Z,1.82
2023-05-10T21:30:00.000Z,1.38
2023-05-10T21:45:00.000Z,1.48
2023-05-10T22:15:00.000Z,2.01
2023-05-10T22:30:00.000Z,1.74
2023-05-10T22:45:00.000Z,2.47
2023-05-10T23:00:00.000Z,2.68
2023-05-10T23:15:00.000Z,1.96
2023-05-10T23:30:00.000Z,2.51
2023-05-10T23:45:00.000Z,2.36
